Time;durP1;ratioP1;P1;durP2;ratioP2;P2;SDS_P1;SDS_P2;PMS_P1;PMS_P2;Temp;Humidity;BMP_temperature;BMP_pressure;BME280_temperature;BME280_humidity;BME280_pressure;Samples;Min_cycle;Max_cycle;Signal;HPM_P1;HPM_P2
2021/10/26 00:00:04;;;;;;;31.38;20.20;;;12.40;99.90;;;;;;5030324;28;20025;-94
2021/10/26 00:02:29;;;;;;;29.75;20.10;;;12.40;99.90;;;;;;5027471;28;20041;-94
2021/10/26 00:04:55;;;;;;;32.45;20.52;;;12.40;99.90;;;;;;5048254;28;20032;-92
2021/10/26 00:07:20;;;;;;;32.90;21.63;;;12.40;99.90;;;;;;5031779;28;20018;-94
2021/10/26 00:09:46;;;;;;;32.80;22.55;;;12.40;99.90;;;;;;5031113;28;20032;-94
2021/10/26 00:12:11;;;;;;;32.05;22.63;;;12.40;99.90;;;;;;5034098;28;20025;-93
2021/10/26 00:14:37;;;;;;;28.95;20.75;;;12.40;99.90;;;;;;5030330;28;20030;-95
2021/10/26 00:17:03;;;;;;;31.63;20.95;;;12.40;99.90;;;;;;5021581;28;20026;-93
2021/10/26 00:19:29;;;;;;;32.95;22.10;;;12.40;99.90;;;;;;5031427;28;20033;-93
2021/10/26 00:21:54;;;;;;;32.75;22.38;;;12.40;99.90;;;;;;5031469;28;20030;-94
2021/10/26 00:24:20;;;;;;;36.53;22.73;;;12.40;99.90;;;;;;5039046;28;20029;-93
2021/10/26 00:26:46;;;;;;;38.03;24.98;;;12.30;99.90;;;;;;5030821;28;20040;-93
2021/10/26 00:29:11;;;;;;;38.28;23.85;;;12.40;99.90;;;;;;5030442;28;20037;-94
2021/10/26 00:31:37;;;;;;;33.90;22.75;;;12.40;99.90;;;;;;5033880;28;20034;-94
2021/10/26 00:34:03;;;;;;;39.53;25.73;;;12.40;99.90;;;;;;5046848;28;20530;-94
2021/10/26 00:36:29;;;;;;;37.53;24.90;;;12.40;99.90;;;;;;5035469;28;20025;-95
2021/10/26 00:38:54;;;;;;;35.50;24.92;;;12.40;99.90;;;;;;5035308;28;20030;-94
2021/10/26 00:41:20;;;;;;;34.17;24.55;;;12.40;99.90;;;;;;5033717;28;20033;-93
2021/10/26 00:43:45;;;;;;;40.90;24.50;;;12.40;99.90;;;;;;5036423;28;20132;-94
2021/10/26 00:46:11;;;;;;;35.60;25.50;;;12.30;99.90;;;;;;5041276;28;20037;-95
2021/10/26 00:48:37;;;;;;;40.17;25.48;;;12.30;99.90;;;;;;5034230;28;20033;-95
2021/10/26 00:51:04;;;;;;;36.65;25.52;;;12.30;99.90;;;;;;5031582;28;21177;-93
2021/10/26 00:53:30;;;;;;;36.63;24.60;;;12.30;99.90;;;;;;5034569;28;20029;-94
2021/10/26 00:55:56;;;;;;;39.58;26.50;;;12.30;99.90;;;;;;5034959;28;20384;-93
2021/10/26 00:58:21;;;;;;;38.22;25.85;;;12.30;99.90;;;;;;5033774;28;20041;-94
2021/10/26 01:00:47;;;;;;;37.33;26.05;;;12.30;99.90;;;;;;5044672;28;20032;-94
2021/10/26 01:03:13;;;;;;;38.05;25.75;;;12.30;99.90;;;;;;5051554;28;20021;-93
2021/10/26 01:05:39;;;;;;;40.33;27.02;;;12.30;99.90;;;;;;5038102;28;20033;-93
2021/10/26 01:08:04;;;;;;;35.60;25.02;;;12.20;99.90;;;;;;5039854;28;20033;-93
2021/10/26 01:10:32;;;;;;;37.40;25.52;;;12.30;99.90;;;;;;5039523;28;20171;-94
2021/10/26 01:12:57;;;;;;;38.30;24.95;;;12.20;99.90;;;;;;5050083;28;20025;-95
2021/10/26 01:15:23;;;;;;;41.88;26.67;;;12.20;99.90;;;;;;5038236;28;20029;-94
2021/10/26 01:17:49;;;;;;;41.20;27.13;;;12.20;99.90;;;;;;5037580;28;20017;-94
2021/10/26 01:20:15;;;;;;;37.72;25.70;;;12.10;99.90;;;;;;5038651;28;20119;-93
2021/10/26 01:22:40;;;;;;;40.47;27.33;;;12.10;99.90;;;;;;5037659;28;20033;-95
2021/10/26 01:25:11;;;;;;;43.22;28.42;;;12.10;99.90;;;;;;5037356;28;20439;-93
2021/10/26 01:27:53;;;;;;;47.13;26.83;;;12.10;99.90;;;;;;5039989;28;20480;-93
2021/10/26 01:30:25;;;;;;;41.85;28.15;;;12.10;99.90;;;;;;5050794;28;20123;-93
2021/10/26 01:32:51;;;;;;;41.97;27.92;;;12.10;99.90;;;;;;5037759;28;20383;-94
2021/10/26 01:35:16;;;;;;;58.63;29.45;;;12.10;99.90;;;;;;5038066;28;20029;-93
2021/10/26 01:37:42;;;;;;;45.63;28.67;;;12.10;99.90;;;;;;5038325;28;20029;-95
2021/10/26 01:40:08;;;;;;;48.30;28.92;;;12.10;99.90;;;;;;5036885;28;20042;-93
2021/10/26 01:42:34;;;;;;;40.85;26.48;;;12.10;99.90;;;;;;5035920;28;20078;-94
2021/10/26 01:45:00;;;;;;;47.53;28.27;;;12.10;99.90;;;;;;5037549;28;20028;-93
2021/10/26 01:47:25;;;;;;;48.53;29.50;;;12.10;99.90;;;;;;5042828;28;20032;-93
2021/10/26 01:49:51;;;;;;;43.33;28.63;;;12.10;99.90;;;;;;5036355;28;20028;-94
2021/10/26 01:52:16;;;;;;;43.55;27.73;;;12.10;99.90;;;;;;5037359;28;20071;-93
2021/10/26 01:54:42;;;;;;;49.10;27.92;;;12.10;99.90;;;;;;5037585;28;20489;-93
2021/10/26 01:57:08;;;;;;;40.80;26.33;;;12.10;99.90;;;;;;5043892;28;20073;-94
2021/10/26 01:59:34;;;;;;;44.85;27.67;;;12.10;99.90;;;;;;5040939;28;20012;-93
2021/10/26 02:02:00;;;;;;;40.55;28.42;;;12.10;99.90;;;;;;5044569;28;20073;-94
2021/10/26 02:04:26;;;;;;;45.70;29.00;;;12.10;99.90;;;;;;5054870;28;20064;-94
2021/10/26 02:06:53;;;;;;;43.63;28.10;;;12.10;99.90;;;;;;5045816;28;20117;-93
2021/10/26 02:09:19;;;;;;;50.22;28.70;;;12.10;99.90;;;;;;5037096;28;20033;-93
2021/10/26 02:11:45;;;;;;;45.05;29.67;;;12.00;99.90;;;;;;5035115;28;20099;-93
2021/10/26 02:14:11;;;;;;;46.50;27.42;;;11.90;99.90;;;;;;5043406;28;20029;-93
2021/10/26 02:16:36;;;;;;;46.10;28.95;;;11.90;99.90;;;;;;5036906;28;20028;-94
2021/10/26 02:19:02;;;;;;;48.78;30.95;;;11.90;99.90;;;;;;5034646;28;20016;-93
2021/10/26 02:21:28;;;;;;;48.17;30.42;;;11.90;99.90;;;;;;5042297;28;20057;-94
2021/10/26 02:23:53;;;;;;;49.05;30.70;;;11.90;99.90;;;;;;5043725;28;20068;-93
2021/10/26 02:26:19;;;;;;;47.92;30.58;;;11.80;99.90;;;;;;5036382;28;20071;-94
2021/10/26 02:28:45;;;;;;;50.42;30.25;;;11.80;99.90;;;;;;5039099;28;20095;-94
2021/10/26 02:31:10;;;;;;;48.63;30.35;;;11.80;99.90;;;;;;5036194;28;20123;-93
2021/10/26 02:33:37;;;;;;;50.70;31.23;;;11.80;99.90;;;;;;5042558;28;20480;-93
2021/10/26 02:36:03;;;;;;;45.35;29.83;;;11.80;99.90;;;;;;5039757;28;20032;-92
2021/10/26 02:38:29;;;;;;;53.90;31.80;;;11.80;99.90;;;;;;5040638;28;20032;-93
2021/10/26 02:40:54;;;;;;;57.60;32.67;;;11.80;99.90;;;;;;5053588;28;20028;-94
2021/10/26 02:43:20;;;;;;;52.25;32.20;;;11.80;99.90;;;;;;5032265;28;20047;-92
2021/10/26 02:45:46;;;;;;;47.20;31.98;;;11.80;99.90;;;;;;5035607;28;20072;-93
2021/10/26 02:48:11;;;;;;;50.78;31.48;;;11.80;99.90;;;;;;5036172;28;20111;-94
2021/10/26 02:50:37;;;;;;;56.80;31.70;;;11.80;99.90;;;;;;5036363;28;20071;-93
2021/10/26 02:53:03;;;;;;;53.88;31.52;;;11.80;99.90;;;;;;5035159;28;20020;-94
2021/10/26 02:55:29;;;;;;;52.75;32.88;;;11.80;99.90;;;;;;5043357;28;20039;-94
2021/10/26 02:57:54;;;;;;;51.17;31.85;;;11.80;99.90;;;;;;5039111;28;20037;-93
2021/10/26 03:00:20;;;;;;;51.58;32.40;;;11.80;99.90;;;;;;5037609;28;20113;-94
2021/10/26 03:02:46;;;;;;;59.13;34.72;;;11.80;99.90;;;;;;5034629;28;20041;-94
2021/10/26 03:05:11;;;;;;;56.25;34.03;;;11.80;99.90;;;;;;5048932;28;20033;-94
2021/10/26 03:07:41;;;;;;;50.63;32.97;;;11.70;99.90;;;;;;5045232;28;20021;-93
2021/10/26 03:10:08;;;;;;;53.22;32.72;;;11.70;99.90;;;;;;5037214;28;20037;-93
2021/10/26 03:12:35;;;;;;;50.30;32.53;;;11.70;99.90;;;;;;5032128;28;20026;-93
2021/10/26 03:15:01;;;;;;;48.88;31.95;;;11.70;99.90;;;;;;5039265;28;20525;-93
2021/10/26 03:17:26;;;;;;;53.28;33.33;;;11.80;99.90;;;;;;5053361;28;20554;-94
2021/10/26 03:19:52;;;;;;;49.58;31.20;;;11.80;99.90;;;;;;5034580;28;20041;-94
2021/10/26 03:22:18;;;;;;;55.15;32.13;;;11.80;99.90;;;;;;5061524;28;20025;-94
2021/10/26 03:24:44;;;;;;;51.40;31.70;;;11.80;99.90;;;;;;5034670;28;20397;-94
2021/10/26 03:27:10;;;;;;;52.53;33.30;;;11.80;99.90;;;;;;5046304;28;20021;-93
2021/10/26 03:29:36;;;;;;;57.38;33.58;;;11.80;99.90;;;;;;5052132;28;20047;-93
2021/10/26 03:32:02;;;;;;;61.30;35.60;;;11.80;99.90;;;;;;5035172;28;20033;-94
2021/10/26 03:34:29;;;;;;;56.90;34.75;;;11.80;99.90;;;;;;5061218;28;20041;-93
2021/10/26 03:36:55;;;;;;;54.65;32.92;;;11.80;99.90;;;;;;5033356;28;20500;-94
2021/10/26 03:39:21;;;;;;;60.35;35.03;;;11.80;99.90;;;;;;5041633;28;20059;-94
2021/10/26 03:41:46;;;;;;;56.20;33.25;;;11.80;99.90;;;;;;5053072;28;20040;-93
2021/10/26 03:44:12;;;;;;;57.80;34.08;;;11.80;99.90;;;;;;5052157;28;20033;-94
2021/10/26 03:46:38;;;;;;;56.42;33.35;;;11.80;99.90;;;;;;5035305;28;20055;-93
2021/10/26 03:49:04;;;;;;;55.08;34.83;;;11.80;99.90;;;;;;5034574;28;20109;-93
2021/10/26 03:51:33;;;;;;;60.58;35.05;;;11.70;99.90;;;;;;5034776;28;20032;-93
2021/10/26 03:53:59;;;;;;;54.47;32.65;;;11.80;99.90;;;;;;5052624;28;20066;-93
2021/10/26 03:56:25;;;;;;;59.35;34.33;;;11.70;99.90;;;;;;5046304;28;20032;-94
2021/10/26 03:58:51;;;;;;;55.30;32.25;;;11.80;99.90;;;;;;5052149;28;20016;-93
2021/10/26 04:01:16;;;;;;;54.75;33.17;;;11.80;99.90;;;;;;5034867;28;20112;-94
2021/10/26 04:03:42;;;;;;;56.45;32.92;;;11.80;99.90;;;;;;5034613;28;20017;-93
2021/10/26 04:06:12;;;;;;;48.95;32.53;;;11.80;99.90;;;;;;5045743;28;20029;-94
2021/10/26 04:11:23;;;;;;;66.53;37.17;;;11.80;99.90;;;;;;5052486;28;20033;-95
2021/10/26 04:13:49;;;;;;;67.57;36.50;;;11.70;99.90;;;;;;5049706;28;20082;-94
2021/10/26 04:16:15;;;;;;;61.60;36.40;;;11.70;99.90;;;;;;5039077;28;20028;-94
2021/10/26 04:18:41;;;;;;;65.68;34.05;;;11.80;99.90;;;;;;5051595;28;20017;-92
2021/10/26 04:21:09;;;;;;;59.15;35.72;;;11.70;99.90;;;;;;5050585;28;20066;-92
2021/10/26 04:23:35;;;;;;;63.70;37.80;;;11.70;99.90;;;;;;5034171;28;20025;-93
2021/10/26 04:26:04;;;;;;;54.42;34.20;;;11.70;99.90;;;;;;5036546;28;20037;-94
2021/10/26 04:28:30;;;;;;;60.25;35.75;;;11.70;99.90;;;;;;5016399;28;20023;-93
2021/10/26 04:31:00;;;;;;;66.35;36.47;;;11.70;99.90;;;;;;5048038;28;20037;-93
2021/10/26 04:33:26;;;;;;;66.72;36.75;;;11.70;99.90;;;;;;5036139;28;20025;-92
2021/10/26 04:35:51;;;;;;;64.65;37.80;;;11.70;99.90;;;;;;5035216;28;20044;-94
2021/10/26 04:38:17;;;;;;;67.82;36.45;;;11.70;99.90;;;;;;5034234;28;20120;-93
2021/10/26 04:40:42;;;;;;;65.10;37.25;;;11.70;99.90;;;;;;5034548;28;20087;-94
2021/10/26 04:43:08;;;;;;;65.13;37.47;;;11.70;99.90;;;;;;5037548;28;20053;-93
2021/10/26 04:45:33;;;;;;;63.30;36.70;;;11.70;99.90;;;;;;5042236;28;20057;-93
2021/10/26 04:47:59;;;;;;;66.13;39.53;;;11.70;99.90;;;;;;5034856;28;20071;-94
2021/10/26 04:50:30;;;;;;;65.50;37.55;;;11.70;99.90;;;;;;5030778;28;20029;-94
2021/10/26 04:52:55;;;;;;;63.67;36.90;;;11.70;99.90;;;;;;5043663;28;20033;-94
2021/10/26 04:55:21;;;;;;;66.18;37.90;;;11.70;99.90;;;;;;5030630;28;20860;-94
2021/10/26 04:57:46;;;;;;;64.32;36.38;;;11.60;99.90;;;;;;5034405;28;20104;-94
2021/10/26 05:00:12;;;;;;;62.30;37.70;;;11.60;99.90;;;;;;5034725;28;20032;-94
2021/10/26 05:02:39;;;;;;;65.22;36.95;;;11.70;99.90;;;;;;5051197;28;20433;-94
2021/10/26 05:05:05;;;;;;;63.00;35.95;;;11.60;99.90;;;;;;5038514;28;20055;-95
2021/10/26 05:07:32;;;;;;;63.55;36.03;;;11.70;99.90;;;;;;5024407;28;20032;-95
2021/10/26 05:09:57;;;;;;;61.88;36.47;;;11.70;99.90;;;;;;5024240;28;20108;-93
2021/10/26 05:12:23;;;;;;;63.10;37.92;;;11.60;99.90;;;;;;5033864;28;20104;-94
2021/10/26 05:14:49;;;;;;;66.90;38.45;;;11.70;99.90;;;;;;5035304;28;20052;-94
2021/10/26 05:17:19;;;;;;;65.00;35.05;;;11.70;99.90;;;;;;5036508;28;20468;-93
2021/10/26 05:19:49;;;;;;;64.32;38.05;;;11.70;99.90;;;;;;5052180;28;20021;-94
2021/10/26 05:22:14;;;;;;;57.65;34.50;;;11.60;99.90;;;;;;5055189;28;20124;-93
2021/10/26 05:24:40;;;;;;;69.25;39.25;;;11.60;99.90;;;;;;5039370;28;20021;-95
2021/10/26 05:27:06;;;;;;;67.93;38.35;;;11.70;99.90;;;;;;5039027;28;20115;-94
2021/10/26 05:29:31;;;;;;;72.75;40.58;;;11.60;99.90;;;;;;5038252;28;20075;-93
2021/10/26 05:31:57;;;;;;;68.70;38.75;;;11.60;99.90;;;;;;5054751;28;20132;-92
2021/10/26 05:34:24;;;;;;;71.25;37.58;;;11.60;99.90;;;;;;5059934;28;20464;-93
2021/10/26 05:36:50;;;;;;;75.03;39.30;;;11.60;99.90;;;;;;5041560;28;20093;-93
2021/10/26 05:39:16;;;;;;;70.28;38.13;;;11.60;99.90;;;;;;5056782;28;20029;-92
2021/10/26 05:41:42;;;;;;;65.25;37.03;;;11.60;99.90;;;;;;5041651;28;20047;-92
2021/10/26 05:44:07;;;;;;;70.32;37.53;;;11.60;99.90;;;;;;5042227;28;20024;-93
2021/10/26 05:46:33;;;;;;;62.85;35.72;;;11.60;99.90;;;;;;5038984;28;20033;-93
2021/10/26 05:49:00;;;;;;;64.10;37.25;;;11.60;99.90;;;;;;5045480;28;20021;-93
2021/10/26 05:51:26;;;;;;;71.05;38.03;;;11.60;99.90;;;;;;5038712;28;20040;-94
2021/10/26 05:53:52;;;;;;;74.35;39.67;;;11.60;99.90;;;;;;5033654;28;20465;-93
2021/10/26 05:56:17;;;;;;;67.22;35.33;;;11.60;99.90;;;;;;5036588;28;20055;-92
2021/10/26 05:58:43;;;;;;;68.93;37.78;;;11.60;99.90;;;;;;5039957;28;20021;-93
2021/10/26 06:01:08;;;;;;;68.57;38.22;;;11.60;99.90;;;;;;5039322;28;20052;-92
2021/10/26 06:03:34;;;;;;;68.97;38.83;;;11.60;99.90;;;;;;5039836;28;20117;-93
2021/10/26 06:06:00;;;;;;;70.82;37.58;;;11.50;99.90;;;;;;5048003;28;20027;-93
2021/10/26 06:08:27;;;;;;;70.97;37.40;;;11.50;99.90;;;;;;5019924;28;20022;-93
2021/10/26 06:11:01;;;;;;;72.35;37.47;;;11.50;99.90;;;;;;5039391;28;20125;-92
2021/10/26 06:13:30;;;;;;;71.68;38.55;;;11.50;99.90;;;;;;5039931;28;20021;-92
2021/10/26 06:15:56;;;;;;;71.75;37.92;;;11.50;99.90;;;;;;5035915;28;20025;-93
2021/10/26 06:18:22;;;;;;;73.03;37.25;;;11.50;99.90;;;;;;5045690;28;20029;-93
2021/10/26 06:20:48;;;;;;;70.32;36.75;;;11.40;99.90;;;;;;5056238;28;20035;-92
2021/10/26 06:23:14;;;;;;;75.00;36.78;;;11.40;99.90;;;;;;5040195;28;20057;-94
2021/10/26 06:25:39;;;;;;;72.93;39.78;;;11.40;99.90;;;;;;5039027;28;20181;-93
2021/10/26 06:28:05;;;;;;;82.63;38.95;;;11.40;99.90;;;;;;5037217;28;20033;-92
2021/10/26 06:30:32;;;;;;;73.57;38.03;;;11.30;99.90;;;;;;5038857;28;20040;-93
2021/10/26 06:32:57;;;;;;;82.50;39.17;;;11.30;99.90;;;;;;5037833;28;20020;-92
2021/10/26 06:35:23;;;;;;;75.78;40.00;;;11.30;99.90;;;;;;5039007;28;20138;-94
2021/10/26 06:37:48;;;;;;;79.63;38.60;;;11.30;99.90;;;;;;5043837;28;20044;-90
2021/10/26 06:40:17;;;;;;;83.25;38.60;;;11.30;99.90;;;;;;5036440;28;20477;-91
2021/10/26 06:42:43;;;;;;;75.72;38.55;;;11.30;99.90;;;;;;5041449;28;20029;-92
2021/10/26 06:45:09;;;;;;;79.35;38.60;;;11.30;99.90;;;;;;5032272;28;20507;-91
2021/10/26 06:47:35;;;;;;;82.13;39.13;;;11.30;99.90;;;;;;5036193;28;20057;-92
2021/10/26 06:50:01;;;;;;;82.47;39.13;;;11.30;99.90;;;;;;5028496;28;20029;-92
2021/10/26 06:52:27;;;;;;;78.75;37.90;;;11.30;99.90;;;;;;5051388;28;20037;-91
2021/10/26 06:54:53;;;;;;;78.45;37.67;;;11.40;99.90;;;;;;5035403;28;20028;-92
2021/10/26 06:57:20;;;;;;;76.72;36.50;;;11.40;99.90;;;;;;5034044;28;20029;-92
2021/10/26 06:59:46;;;;;;;82.60;38.92;;;11.40;99.90;;;;;;5037185;28;20021;-92
2021/10/26 07:02:12;;;;;;;85.13;37.40;;;11.40;99.90;;;;;;5050357;28;20132;-91
2021/10/26 07:04:37;;;;;;;81.78;39.55;;;11.40;99.90;;;;;;5036665;28;20507;-89
2021/10/26 07:07:03;;;;;;;71.70;34.83;;;11.40;99.90;;;;;;5046781;28;20044;-92
2021/10/26 07:09:30;;;;;;;86.95;38.55;;;11.40;99.90;;;;;;5037594;28;20031;-93
2021/10/26 07:11:55;;;;;;;85.20;38.22;;;11.40;99.90;;;;;;5038914;28;20066;-93
2021/10/26 07:14:21;;;;;;;76.20;35.60;;;11.50;99.90;;;;;;5036414;28;20127;-93
2021/10/26 07:16:47;;;;;;;77.10;36.53;;;11.40;99.90;;;;;;5037087;28;20025;-93
2021/10/26 07:19:12;;;;;;;78.78;38.60;;;11.50;99.90;;;;;;5036071;28;20021;-92
2021/10/26 07:21:38;;;;;;;78.20;35.72;;;11.50;99.90;;;;;;5020645;28;20464;-93
2021/10/26 07:24:05;;;;;;;70.32;34.60;;;11.50;99.90;;;;;;5040309;28;20032;-93
2021/10/26 07:26:30;;;;;;;74.38;35.40;;;11.60;99.90;;;;;;5041925;28;20060;-91
2021/10/26 07:28:56;;;;;;;73.93;35.70;;;11.60;99.90;;;;;;5044970;28;20028;-92
2021/10/26 07:31:24;;;;;;;66.70;34.15;;;11.70;99.90;;;;;;5035711;28;20037;-92
2021/10/26 07:33:51;;;;;;;67.25;35.20;;;11.70;99.90;;;;;;5065012;28;20055;-93
2021/10/26 07:36:18;;;;;;;64.07;34.30;;;11.70;99.90;;;;;;5056450;28;20067;-92
2021/10/26 07:38:44;;;;;;;68.15;33.92;;;11.80;99.90;;;;;;5037959;28;20455;-92
2021/10/26 07:41:10;;;;;;;80.95;35.40;;;11.80;99.90;;;;;;5054467;28;20068;-93
2021/10/26 07:43:36;;;;;;;63.15;32.70;;;11.70;99.90;;;;;;5035615;28;20095;-93
2021/10/26 07:46:03;;;;;;;58.72;31.92;;;11.80;99.90;;;;;;5050773;28;20031;-92
2021/10/26 07:48:29;;;;;;;68.60;33.10;;;11.90;99.90;;;;;;5034966;28;20060;-92
2021/10/26 07:50:59;;;;;;;57.70;31.70;;;11.90;99.90;;;;;;5039526;28;20064;-91
2021/10/26 07:53:25;;;;;;;61.83;32.80;;;11.90;99.90;;;;;;5051016;28;20102;-92
2021/10/26 07:55:52;;;;;;;67.40;31.50;;;11.90;99.90;;;;;;5034833;28;20370;-93
2021/10/26 07:58:18;;;;;;;65.68;33.92;;;12.00;99.90;;;;;;5029577;28;20021;-93
2021/10/26 08:00:43;;;;;;;60.97;30.38;;;12.00;99.90;;;;;;5040215;28;20037;-92
2021/10/26 08:03:09;;;;;;;62.70;32.78;;;12.10;99.90;;;;;;5034524;28;20028;-92
2021/10/26 08:05:35;;;;;;;61.67;32.67;;;12.10;99.90;;;;;;5024578;28;20035;-92
2021/10/26 08:08:00;;;;;;;65.95;33.38;;;12.10;99.90;;;;;;5034842;28;20039;-94
2021/10/26 08:10:30;;;;;;;61.30;31.90;;;12.20;99.90;;;;;;5030138;28;20123;-93
2021/10/26 08:12:57;;;;;;;65.60;33.15;;;12.20;99.90;;;;;;5038622;28;20091;-92
2021/10/26 08:15:23;;;;;;;64.15;33.47;;;12.20;99.90;;;;;;5028479;28;20022;-93
2021/10/26 08:17:49;;;;;;;68.68;32.63;;;12.30;99.90;;;;;;5036557;28;20021;-93
2021/10/26 08:20:15;;;;;;;68.85;33.80;;;12.30;99.90;;;;;;5037093;28;20071;-93
2021/10/26 08:22:41;;;;;;;71.13;35.83;;;12.30;99.90;;;;;;5034210;28;20041;-93
2021/10/26 08:25:26;;;;;;;65.93;33.97;;;12.30;99.90;;;;;;5030636;28;20021;-92
2021/10/26 08:27:55;;;;;;;70.10;34.85;;;12.30;99.90;;;;;;5037223;28;20029;-91
2021/10/26 08:35:41;;;;;;;68.65;34.25;;;12.50;99.90;;;;;;5054804;28;20044;-93
2021/10/26 08:38:07;;;;;;;59.40;32.50;;;12.50;99.90;;;;;;5047400;28;20029;-93
2021/10/26 08:40:37;;;;;;;58.92;30.90;;;12.50;99.90;;;;;;5040292;28;20083;-94
2021/10/26 08:43:06;;;;;;;53.00;28.80;;;12.50;99.90;;;;;;5054380;28;20025;-94
2021/10/26 08:45:35;;;;;;;50.20;28.48;;;12.60;99.90;;;;;;5036487;28;20029;-94
2021/10/26 08:48:04;;;;;;;52.75;28.63;;;12.60;99.90;;;;;;5055022;28;20021;-94
2021/10/26 08:50:37;;;;;;;55.05;29.52;;;12.60;99.90;;;;;;5053266;28;20064;-94
2021/10/26 08:53:07;;;;;;;48.78;26.75;;;12.60;99.90;;;;;;5058089;28;20021;-94
2021/10/26 08:55:37;;;;;;;49.72;27.40;;;12.80;99.90;;;;;;5041121;28;20079;-95
2021/10/26 08:58:07;;;;;;;41.92;25.25;;;12.90;99.90;;;;;;5041153;28;20094;-94
2021/10/26 09:00:33;;;;;;;38.67;23.98;;;13.00;99.90;;;;;;5041151;28;20036;-92
2021/10/26 09:03:01;;;;;;;34.90;22.25;;;13.00;99.90;;;;;;5051725;28;20358;-92
2021/10/26 09:05:27;;;;;;;36.13;20.27;;;13.00;99.90;;;;;;5058601;28;20496;-93
2021/10/26 09:08:06;;;;;;;30.35;19.00;;;13.00;99.90;;;;;;5057830;28;20558;-92
2021/10/26 09:10:34;;;;;;;28.73;17.17;;;13.00;99.90;;;;;;5042371;28;20044;-92
2021/10/26 09:18:48;;;;;;;56.03;20.52;;;13.00;99.90;;;;;;5054121;28;20087;-92
2021/10/26 09:21:28;;;;;;;33.10;18.02;;;13.10;99.90;;;;;;5053769;28;20025;-92
2021/10/26 09:23:56;;;;;;;30.38;17.52;;;13.10;99.90;;;;;;5055150;28;20021;-92
2021/10/26 09:26:26;;;;;;;25.50;16.63;;;13.10;99.90;;;;;;5037229;28;20037;-93
2021/10/26 09:28:55;;;;;;;31.48;17.08;;;13.20;99.90;;;;;;5036377;28;20044;-91
2021/10/26 09:31:30;;;;;;;26.08;16.55;;;13.30;99.90;;;;;;5054025;28;20075;-91
2021/10/26 09:34:01;;;;;;;26.00;16.13;;;13.40;99.90;;;;;;5034983;28;20021;-89
2021/10/26 09:36:39;;;;;;;27.77;16.00;;;13.50;99.90;;;;;;5037390;28;20062;-90
2021/10/26 09:39:04;;;;;;;25.83;15.25;;;13.50;99.90;;;;;;5035993;28;20025;-92
2021/10/26 09:41:55;;;;;;;27.75;15.25;;;13.60;99.90;;;;;;5024019;28;20025;-89
2021/10/26 09:44:27;;;;;;;26.55;15.60;;;13.60;99.90;;;;;;5036545;28;20142;-92
2021/10/26 09:46:58;;;;;;;27.75;15.02;;;13.60;99.90;;;;;;5036994;28;20025;-91
2021/10/26 09:49:25;;;;;;;24.83;14.73;;;13.60;99.90;;;;;;5040541;28;20070;-93
2021/10/26 09:52:06;;;;;;;22.75;14.70;;;13.50;99.90;;;;;;5046909;28;20041;-92
2021/10/26 09:54:31;;;;;;;30.92;15.25;;;13.50;99.90;;;;;;5039193;28;20025;-92
2021/10/26 09:57:10;;;;;;;27.85;14.38;;;13.50;99.90;;;;;;5025780;28;20044;-91
2021/10/26 09:59:37;;;;;;;27.58;14.60;;;13.50;99.90;;;;;;5048241;28;20496;-91
2021/10/26 10:02:03;;;;;;;26.38;14.98;;;13.60;99.90;;;;;;5036219;28;20048;-89
2021/10/26 10:04:35;;;;;;;25.13;15.20;;;13.60;99.90;;;;;;5053052;28;20025;-91
2021/10/26 10:07:01;;;;;;;24.38;16.35;;;13.60;99.90;;;;;;5037230;28;20032;-90
2021/10/26 10:09:29;;;;;;;27.77;15.18;;;13.60;99.90;;;;;;5041572;28;20037;-92
2021/10/26 10:12:06;;;;;;;25.85;15.60;;;13.60;99.90;;;;;;5036967;28;20526;-92
2021/10/26 10:14:37;;;;;;;25.08;15.05;;;13.60;99.90;;;;;;5035951;28;20028;-91
2021/10/26 10:17:07;;;;;;;28.35;15.77;;;13.60;99.90;;;;;;5057687;28;20021;-91
2021/10/26 10:19:34;;;;;;;27.67;14.57;;;13.60;99.90;;;;;;5041797;28;20056;-92
2021/10/26 10:22:01;;;;;;;27.67;15.95;;;13.70;99.90;;;;;;5043408;28;20041;-91
2021/10/26 10:24:28;;;;;;;26.05;14.30;;;13.80;99.90;;;;;;5039819;28;20021;-91
2021/10/26 10:26:54;;;;;;;25.42;14.50;;;13.80;99.90;;;;;;5038121;28;20113;-92
2021/10/26 10:29:21;;;;;;;22.80;13.95;;;13.80;99.90;;;;;;5039188;28;20053;-91
2021/10/26 10:31:49;;;;;;;25.90;14.60;;;13.80;99.90;;;;;;5053344;28;20037;-92
2021/10/26 10:34:18;;;;;;;22.30;13.82;;;13.90;99.90;;;;;;5041543;28;20159;-93
2021/10/26 10:36:46;;;;;;;29.73;15.00;;;13.90;99.90;;;;;;5040020;28;20439;-91
2021/10/26 10:39:13;;;;;;;22.67;14.05;;;14.00;99.90;;;;;;5039747;28;20472;-91
2021/10/26 10:41:42;;;;;;;23.17;13.90;;;14.00;99.90;;;;;;5041369;28;20052;-89
2021/10/26 10:44:23;;;;;;;22.40;14.50;;;14.00;99.90;;;;;;5041130;28;20031;-90
2021/10/26 10:46:52;;;;;;;21.48;13.77;;;13.90;99.90;;;;;;5053688;28;20025;-92
2021/10/26 10:49:24;;;;;;;24.75;14.95;;;13.90;99.90;;;;;;5053301;28;20032;-88
2021/10/26 10:51:53;;;;;;;24.33;14.73;;;14.00;99.90;;;;;;5036205;28;20036;-88
2021/10/26 10:54:48;;;;;;;28.63;14.63;;;14.00;99.90;;;;;;5037719;28;20116;-92
2021/10/26 10:57:33;;;;;;;25.65;14.00;;;14.00;99.90;;;;;;5038399;28;20024;-90
2021/10/26 11:00:21;;;;;;;28.92;15.35;;;14.00;99.90;;;;;;5038498;28;20473;-90
2021/10/26 11:02:50;;;;;;;23.08;15.27;;;14.00;99.90;;;;;;5052479;28;20036;-89
2021/10/26 11:05:38;;;;;;;26.73;14.60;;;14.00;99.90;;;;;;5036323;28;20029;-89
2021/10/26 11:08:05;;;;;;;22.13;15.25;;;14.10;99.90;;;;;;5044815;28;20029;-89
2021/10/26 11:10:49;;;;;;;25.70;15.32;;;14.10;99.90;;;;;;5033234;28;20021;-90
2021/10/26 11:13:23;;;;;;;27.83;15.63;;;14.20;99.90;;;;;;5053788;28;20028;-89
2021/10/26 11:15:53;;;;;;;28.58;15.13;;;14.30;99.90;;;;;;5052876;28;20469;-89
2021/10/26 11:18:37;;;;;;;25.48;14.48;;;14.40;99.90;;;;;;5053117;28;20025;-89
2021/10/26 11:21:07;;;;;;;25.75;15.35;;;14.60;99.90;;;;;;5054785;28;20021;-90
2021/10/26 11:23:39;;;;;;;25.98;14.18;;;14.70;99.90;;;;;;5033371;28;20032;-91
2021/10/26 11:26:12;;;;;;;24.77;13.88;;;14.70;99.90;;;;;;5035459;28;20460;-90
2021/10/26 11:28:45;;;;;;;21.23;12.32;;;14.80;99.90;;;;;;5052741;28;20025;-90
2021/10/26 11:31:13;;;;;;;23.15;13.27;;;14.90;99.90;;;;;;5034821;28;20488;-92
2021/10/26 11:33:44;;;;;;;25.13;13.43;;;15.00;99.90;;;;;;5058011;28;20120;-91
2021/10/26 11:36:10;;;;;;;17.77;11.55;;;15.00;99.90;;;;;;5038128;28;20033;-91
2021/10/26 11:38:43;;;;;;;21.15;11.25;;;15.20;99.90;;;;;;5037442;28;20025;-91
2021/10/26 11:41:15;;;;;;;;;;;15.20;99.90;;;;;;5042683;28;20074;-89
2021/10/26 11:43:47;;;;;;;17.30;9.82;;;15.20;99.90;;;;;;5055754;28;19905;-88
2021/10/26 11:46:43;;;;;;;18.80;9.93;;;15.30;99.90;;;;;;5037336;28;20025;-91
2021/10/26 11:49:12;;;;;;;14.57;8.60;;;15.40;99.90;;;;;;5044978;28;20064;-91
2021/10/26 11:51:42;;;;;;;19.95;8.32;;;15.40;99.90;;;;;;5057462;28;20033;-91
2021/10/26 11:54:17;;;;;;;14.65;7.75;;;15.50;99.90;;;;;;5037596;28;20041;-92
2021/10/26 11:56:43;;;;;;;19.00;8.70;;;15.50;99.90;;;;;;5054676;28;20029;-92
2021/10/26 11:59:19;;;;;;;16.38;7.53;;;15.60;99.90;;;;;;5051030;28;20029;-92
2021/10/26 12:01:51;;;;;;;15.90;8.25;;;15.70;99.90;;;;;;5051385;28;20056;-92
2021/10/26 12:04:30;;;;;;;13.27;7.85;;;15.70;99.90;;;;;;5055219;28;20086;-89
2021/10/26 12:07:01;;;;;;;15.05;7.85;;;15.70;99.90;;;;;;5054387;28;20021;-89
2021/10/26 12:09:29;;;;;;;11.00;7.45;;;15.70;99.90;;;;;;5031354;28;20040;-89
2021/10/26 12:11:57;;;;;;;15.52;7.10;;;15.70;99.90;;;;;;5043982;28;20047;-89
2021/10/26 12:14:24;;;;;;;18.63;7.38;;;15.70;99.90;;;;;;5047324;28;20032;-89
2021/10/26 12:17:06;;;;;;;18.38;7.65;;;15.70;99.90;;;;;;5037455;28;20029;-90
2021/10/26 12:19:34;;;;;;;16.70;7.10;;;15.80;99.90;;;;;;5039803;28;20529;-91
2021/10/26 12:22:00;;;;;;;14.88;6.40;;;15.90;99.90;;;;;;5055970;28;20082;-91
2021/10/26 12:24:27;;;;;;;17.33;7.72;;;15.90;99.90;;;;;;5061954;28;21879;-89
2021/10/26 12:27:06;;;;;;;19.30;6.53;;;15.90;99.90;;;;;;5038952;28;20025;-90
2021/10/26 12:29:33;;;;;;;15.48;5.65;;;15.90;99.90;;;;;;5037552;28;20065;-90
2021/10/26 12:32:00;;;;;;;13.38;5.95;;;15.90;99.90;;;;;;5024138;28;20064;-90
2021/10/26 12:34:27;;;;;;;11.63;5.63;;;15.90;99.70;;;;;;5050826;28;20025;-90
2021/10/26 12:36:52;;;;;;;14.07;6.22;;;15.80;99.80;;;;;;5044718;28;20024;-90
2021/10/26 12:39:25;;;;;;;14.07;5.93;;;15.80;99.80;;;;;;5047185;28;20495;-91
2021/10/26 12:41:50;;;;;;;11.40;5.32;;;15.70;99.70;;;;;;5049360;28;20036;-88
2021/10/26 12:44:18;;;;;;;15.82;5.65;;;15.70;99.80;;;;;;5040551;28;20025;-90